sensor_id;sensor_type;location;lat;lon;timestamp;pressure;altitude;pressure_sealevel;temperature;humidity
6952;BME280;3515;50.138;8.502;2022-09-24T00:01:22;101490;;;10.8;85.4
6952;BME280;3515;50.138;8.502;2022-09-24T00:03:48;101460;;;10.8;85.4
6952;BME280;3515;50.138;8.502;2022-09-24T00:06:12;101470;;;10.8;85.9
6952;BME280;3515;50.138;8.502;2022-09-24T00:08:37;101480;;;10.7;85.9
6952;BME280;3515;50.138;8.502;2022-09-24T00:11:03;101460;;;10.8;85.9
6952;BME280;3515;50.138;8.502;2022-09-24T00:13:28;101480;;;10.8;85.9
6952;BME280;3515;50.138;8.502;2022-09-24T00:15:53;101460;;;10.8;85.9
6952;BME280;3515;50.138;8.502;2022-09-24T00:18:18;101460;;;10.8;85.9
6952;BME280;3515;50.138;8.502;2022-09-24T00:20:44;101460;;;10.8;85.9
6952;BME280;3515;50.138;8.502;2022-09-24T00:23:09;101450;;;10.8;85.9
6952;BME280;3515;50.138;8.502;2022-09-24T00:25:39;101440;;;10.8;85.9
6952;BME280;3515;50.138;8.502;2022-09-24T00:28:00;101460;;;10.7;85.9
6952;BME280;3515;50.138;8.502;2022-09-24T00:30:25;101470;;;10.7;85.9
6952;BME280;3515;50.138;8.502;2022-09-24T00:32:50;101440;;;10.7;85.9
6952;BME280;3515;50.138;8.502;2022-09-24T00:35:16;101460;;;10.7;85.9
6952;BME280;3515;50.138;8.502;2022-09-24T00:37:41;101450;;;10.8;85.9
6952;BME280;3515;50.138;8.502;2022-09-24T00:40:07;101450;;;10.7;85.9
6952;BME280;3515;50.138;8.502;2022-09-24T00:42:32;101440;;;10.7;85.9
6952;BME280;3515;50.138;8.502;2022-09-24T00:44:57;101460;;;10.8;85.9
6952;BME280;3515;50.138;8.502;2022-09-24T00:47:26;101430;;;10.7;85.9
6952;BME280;3515;50.138;8.502;2022-09-24T00:49:48;101430;;;10.7;85.9
6952;BME280;3515;50.138;8.502;2022-09-24T00:52:13;101440;;;10.7;85.9
6952;BME280;3515;50.138;8.502;2022-09-24T00:54:38;101430;;;10.7;85.9
6952;BME280;3515;50.138;8.502;2022-09-24T00:57:04;101440;;;10.6;85.9
6952;BME280;3515;50.138;8.502;2022-09-24T00:59:29;101430;;;10.6;85.9
6952;BME280;3515;50.138;8.502;2022-09-24T01:01:54;101430;;;10.6;85.9
6952;BME280;3515;50.138;8.502;2022-09-24T01:04:20;101430;;;10.6;85.9
6952;BME280;3515;50.138;8.502;2022-09-24T01:06:45;101450;;;10.6;85.9
6952;BME280;3515;50.138;8.502;2022-09-24T01:09:10;101430;;;10.5;85.8
6952;BME280;3515;50.138;8.502;2022-09-24T01:11:40;101430;;;10.4;86.3
6952;BME280;3515;50.138;8.502;2022-09-24T01:14:07;101440;;;10.4;86.3
6952;BME280;3515;50.138;8.502;2022-09-24T01:16:29;101430;;;10.4;86.3
6952;BME280;3515;50.138;8.502;2022-09-24T01:18:53;101410;;;10.4;86.3
6952;BME280;3515;50.138;8.502;2022-09-24T01:21:22;101430;;;10.3;86.3
6952;BME280;3515;50.138;8.502;2022-09-24T01:23:49;101420;;;10.2;86.3
6952;BME280;3515;50.138;8.502;2022-09-24T01:26:14;101410;;;10.2;86.3
6952;BME280;3515;50.138;8.502;2022-09-24T01:28:36;101420;;;10.1;86.3
6952;BME280;3515;50.138;8.502;2022-09-24T01:30:59;101420;;;10.1;86.3
6952;BME280;3515;50.138;8.502;2022-09-24T01:33:23;101410;;;10.1;86.3
6952;BME280;3515;50.138;8.502;2022-09-24T01:35:49;101410;;;9.9;86.6
6952;BME280;3515;50.138;8.502;2022-09-24T01:38:15;101410;;;9.9;86.8
6952;BME280;3515;50.138;8.502;2022-09-24T01:40:39;101390;;;9.9;86.8
6952;BME280;3515;50.138;8.502;2022-09-24T01:43:05;101390;;;9.9;87.3
6952;BME280;3515;50.138;8.502;2022-09-24T01:45:30;101400;;;9.9;87.3
6952;BME280;3515;50.138;8.502;2022-09-24T01:47:56;101400;;;9.9;87.3
6952;BME280;3515;50.138;8.502;2022-09-24T01:50:21;101380;;;9.8;87.3
6952;BME280;3515;50.138;8.502;2022-09-24T01:52:49;101370;;;9.8;87.3
6952;BME280;3515;50.138;8.502;2022-09-24T01:55:12;101380;;;9.8;87.3
6952;BME280;3515;50.138;8.502;2022-09-24T01:57:37;101390;;;9.8;87.3
6952;BME280;3515;50.138;8.502;2022-09-24T02:00:04;101390;;;9.7;87.3
6952;BME280;3515;50.138;8.502;2022-09-24T02:02:29;101390;;;9.7;87.3
6952;BME280;3515;50.138;8.502;2022-09-24T02:04:58;101390;;;9.6;87.3
6952;BME280;3515;50.138;8.502;2022-09-24T02:07:23;101380;;;9.6;87.3
6952;BME280;3515;50.138;8.502;2022-09-24T02:09:48;101370;;;9.6;87.3
6952;BME280;3515;50.138;8.502;2022-09-24T02:12:14;101350;;;9.4;87.3
6952;BME280;3515;50.138;8.502;2022-09-24T02:14:39;101370;;;9.4;87.3
6952;BME280;3515;50.138;8.502;2022-09-24T02:17:04;101370;;;9.3;87.3
6952;BME280;3515;50.138;8.502;2022-09-24T02:19:29;101380;;;9.3;87.3
6952;BME280;3515;50.138;8.502;2022-09-24T02:21:55;101380;;;9.3;87.3
6952;BME280;3515;50.138;8.502;2022-09-24T02:24:21;101370;;;9.2;87.3
6952;BME280;3515;50.138;8.502;2022-09-24T02:26:45;101360;;;9.2;87.3
6952;BME280;3515;50.138;8.502;2022-09-24T02:29:10;101380;;;9.2;87.3
6952;BME280;3515;50.138;8.502;2022-09-24T02:31:36;101360;;;9.2;87.3
6952;BME280;3515;50.138;8.502;2022-09-24T02:34:03;101350;;;9.1;87.8
6952;BME280;3515;50.138;8.502;2022-09-24T02:36:27;101360;;;9.1;87.8
6952;BME280;3515;50.138;8.502;2022-09-24T02:38:52;101370;;;9.1;87.8
6952;BME280;3515;50.138;8.502;2022-09-24T02:41:17;101350;;;9.1;87.8
6952;BME280;3515;50.138;8.502;2022-09-24T02:43:43;101370;;;9.1;87.8
6952;BME280;3515;50.138;8.502;2022-09-24T02:46:08;101360;;;8.9;87.8
6952;BME280;3515;50.138;8.502;2022-09-24T02:48:33;101380;;;8.9;87.8
6952;BME280;3515;50.138;8.502;2022-09-24T02:50:59;101380;;;8.8;87.8
6952;BME280;3515;50.138;8.502;2022-09-24T02:53:24;101350;;;8.8;87.8
6952;BME280;3515;50.138;8.502;2022-09-24T02:55:50;101360;;;8.9;87.8
6952;BME280;3515;50.138;8.502;2022-09-24T02:58:15;101360;;;8.8;87.8
6952;BME280;3515;50.138;8.502;2022-09-24T03:00:40;101370;;;8.8;88.3
6952;BME280;3515;50.138;8.502;2022-09-24T03:03:05;101380;;;8.6;88.3
6952;BME280;3515;50.138;8.502;2022-09-24T03:05:31;101380;;;8.6;88.3
6952;BME280;3515;50.138;8.502;2022-09-24T03:07:56;101380;;;8.6;88.3
6952;BME280;3515;50.138;8.502;2022-09-24T03:10:21;101370;;;8.6;88.3
6952;BME280;3515;50.138;8.502;2022-09-24T03:12:47;101370;;;8.5;88.3
6952;BME280;3515;50.138;8.502;2022-09-24T03:15:12;101370;;;8.5;88.3
6952;BME280;3515;50.138;8.502;2022-09-24T03:17:38;101360;;;8.4;88.3
6952;BME280;3515;50.138;8.502;2022-09-24T03:20:09;101340;;;8.4;88.3
6952;BME280;3515;50.138;8.502;2022-09-24T03:22:28;101370;;;8.4;88.8
6952;BME280;3515;50.138;8.502;2022-09-24T03:24:54;101370;;;8.4;88.8
6952;BME280;3515;50.138;8.502;2022-09-24T03:27:19;101370;;;8.4;88.8
6952;BME280;3515;50.138;8.502;2022-09-24T03:29:44;101390;;;8.4;88.8
6952;BME280;3515;50.138;8.502;2022-09-24T03:32:09;101350;;;8.4;88.8
6952;BME280;3515;50.138;8.502;2022-09-24T03:34:35;101380;;;8.4;88.8
6952;BME280;3515;50.138;8.502;2022-09-24T03:37:00;101380;;;8.4;88.8
6952;BME280;3515;50.138;8.502;2022-09-24T03:39:25;101350;;;8.4;88.8
6952;BME280;3515;50.138;8.502;2022-09-24T03:41:51;101360;;;8.4;88.8
6952;BME280;3515;50.138;8.502;2022-09-24T03:44:16;101360;;;8.5;89.4
6952;BME280;3515;50.138;8.502;2022-09-24T03:46:42;101380;;;8.4;89.4
6952;BME280;3515;50.138;8.502;2022-09-24T03:49:07;101360;;;8.4;89.4
6952;BME280;3515;50.138;8.502;2022-09-24T03:51:32;101340;;;8.4;89.4
6952;BME280;3515;50.138;8.502;2022-09-24T03:53:58;101340;;;8.4;89.3
6952;BME280;3515;50.138;8.502;2022-09-24T03:56:23;101350;;;8.4;89.3
6952;BME280;3515;50.138;8.502;2022-09-24T03:58:48;101350;;;8.4;89.3
6952;BME280;3515;50.138;8.502;2022-09-24T04:01:14;101340;;;8.4;89.3
6952;BME280;3515;50.138;8.502;2022-09-24T04:03:39;101340;;;8.4;89.4
6952;BME280;3515;50.138;8.502;2022-09-24T04:06:05;101340;;;8.4;89.4
6952;BME280;3515;50.138;8.502;2022-09-24T04:08:30;101340;;;8.4;89.4
6952;BME280;3515;50.138;8.502;2022-09-24T04:10:55;101310;;;8.4;89.4
6952;BME280;3515;50.138;8.502;2022-09-24T04:13:21;101330;;;8.4;89.4
6952;BME280;3515;50.138;8.502;2022-09-24T04:15:46;101320;;;8.5;89.4
6952;BME280;3515;50.138;8.502;2022-09-24T04:18:11;101320;;;8.5;89.4
6952;BME280;3515;50.138;8.502;2022-09-24T04:20:37;101330;;;8.4;89.4
6952;BME280;3515;50.138;8.502;2022-09-24T04:23:02;101310;;;8.4;89.4
6952;BME280;3515;50.138;8.502;2022-09-24T04:25:28;101330;;;8.4;89.4
6952;BME280;3515;50.138;8.502;2022-09-24T04:27:53;101340;;;8.4;89.4
6952;BME280;3515;50.138;8.502;2022-09-24T04:30:18;101310;;;8.4;88.9
6952;BME280;3515;50.138;8.502;2022-09-24T04:32:43;101330;;;8.4;88.9
6952;BME280;3515;50.138;8.502;2022-09-24T04:35:09;101320;;;8.4;89.3
6952;BME280;3515;50.138;8.502;2022-09-24T04:37:34;101310;;;8.4;89.3
6952;BME280;3515;50.138;8.502;2022-09-24T04:39:59;101330;;;8.5;89.4
6952;BME280;3515;50.138;8.502;2022-09-24T04:42:27;101330;;;8.5;89.4
6952;BME280;3515;50.138;8.502;2022-09-24T04:44:52;101320;;;8.4;88.9
6952;BME280;3515;50.138;8.502;2022-09-24T04:47:18;101330;;;8.4;88.9
6952;BME280;3515;50.138;8.502;2022-09-24T04:49:43;101320;;;8.4;88.9
6952;BME280;3515;50.138;8.502;2022-09-24T04:52:08;101320;;;8.4;88.9
6952;BME280;3515;50.138;8.502;2022-09-24T04:54:34;101320;;;8.4;88.9
6952;BME280;3515;50.138;8.502;2022-09-24T04:56:59;101320;;;8.4;89.3
6952;BME280;3515;50.138;8.502;2022-09-24T04:59:25;101320;;;8.4;89.4
6952;BME280;3515;50.138;8.502;2022-09-24T05:01:50;101330;;;8.4;89.4
6952;BME280;3515;50.138;8.502;2022-09-24T05:04:15;101330;;;8.4;89.4
6952;BME280;3515;50.138;8.502;2022-09-24T05:06:40;101340;;;8.4;89.4
6952;BME280;3515;50.138;8.502;2022-09-24T05:09:06;101320;;;8.4;89.4
6952;BME280;3515;50.138;8.502;2022-09-24T05:11:31;101310;;;8.4;89.4
6952;BME280;3515;50.138;8.502;2022-09-24T05:13:56;101340;;;8.4;89.4
6952;BME280;3515;50.138;8.502;2022-09-24T05:16:22;101320;;;8.4;89.3
6952;BME280;3515;50.138;8.502;2022-09-24T05:18:47;101320;;;8.4;89.3
6952;BME280;3515;50.138;8.502;2022-09-24T05:21:12;101350;;;8.4;89.4
6952;BME280;3515;50.138;8.502;2022-09-24T05:23:38;101320;;;8.4;89.4
6952;BME280;3515;50.138;8.502;2022-09-24T05:26:03;101340;;;8.4;89.4
6952;BME280;3515;50.138;8.502;2022-09-24T05:28:28;101340;;;8.4;89.9
6952;BME280;3515;50.138;8.502;2022-09-24T05:30:55;101320;;;8.5;89.9
6952;BME280;3515;50.138;8.502;2022-09-24T05:33:19;101330;;;8.5;89.9
6952;BME280;3515;50.138;8.502;2022-09-24T05:35:44;101330;;;8.5;89.9
6952;BME280;3515;50.138;8.502;2022-09-24T05:38:10;101330;;;8.5;89.9
6952;BME280;3515;50.138;8.502;2022-09-24T05:40:35;101330;;;8.5;89.9
6952;BME280;3515;50.138;8.502;2022-09-24T05:43:01;101330;;;8.5;89.9
6952;BME280;3515;50.138;8.502;2022-09-24T05:45:26;101340;;;8.6;89.9
6952;BME280;3515;50.138;8.502;2022-09-24T05:47:51;101350;;;8.6;89.9
6952;BME280;3515;50.138;8.502;2022-09-24T05:50:17;101350;;;8.6;89.9
6952;BME280;3515;50.138;8.502;2022-09-24T05:52:42;101350;;;8.7;89.9
6952;BME280;3515;50.138;8.502;2022-09-24T05:55:08;101360;;;8.7;89.9
6952;BME280;3515;50.138;8.502;2022-09-24T05:57:33;101350;;;8.7;89.9
6952;BME280;3515;50.138;8.502;2022-09-24T05:59:58;101370;;;8.8;89.9
6952;BME280;3515;50.138;8.502;2022-09-24T06:02:24;101370;;;8.8;89.9
6952;BME280;3515;50.138;8.502;2022-09-24T06:04:49;101350;;;8.9;89.9
6952;BME280;3515;50.138;8.502;2022-09-24T06:07:15;101380;;;9.0;89.9
6952;BME280;3515;50.138;8.502;2022-09-24T06:09:40;101380;;;9.1;89.9
6952;BME280;3515;50.138;8.502;2022-09-24T06:12:06;101360;;;9.2;89.9
6952;BME280;3515;50.138;8.502;2022-09-24T06:14:31;101350;;;9.2;89.9
6952;BME280;3515;50.138;8.502;2022-09-24T06:16:56;101370;;;9.3;89.4
6952;BME280;3515;50.138;8.502;2022-09-24T06:19:22;101370;;;9.3;89.4
6952;BME280;3515;50.138;8.502;2022-09-24T06:21:47;101350;;;9.4;89.4
6952;BME280;3515;50.138;8.502;2022-09-24T06:24:12;101370;;;9.5;89.5
6952;BME280;3515;50.138;8.502;2022-09-24T06:26:38;101370;;;9.5;89.5
6952;BME280;3515;50.138;8.502;2022-09-24T06:29:03;101360;;;9.6;89.5
6952;BME280;3515;50.138;8.502;2022-09-24T06:31:29;101380;;;9.7;89.0
6952;BME280;3515;50.138;8.502;2022-09-24T06:33:54;101390;;;9.7;89.0
6952;BME280;3515;50.138;8.502;2022-09-24T06:36:19;101370;;;9.8;89.0
6952;BME280;3515;50.138;8.502;2022-09-24T06:38:49;101360;;;9.9;89.0
6952;BME280;3515;50.138;8.502;2022-09-24T06:41:10;101370;;;9.9;88.5
6952;BME280;3515;50.138;8.502;2022-09-24T06:43:36;101370;;;9.9;88.5
6952;BME280;3515;50.138;8.502;2022-09-24T06:46:01;101380;;;10.1;88.0
6952;BME280;3515;50.138;8.502;2022-09-24T06:48:27;101380;;;10.2;88.0
6952;BME280;3515;50.138;8.502;2022-09-24T06:50:52;101370;;;10.4;88.0
6952;BME280;3515;50.138;8.502;2022-09-24T06:53:17;101370;;;10.5;87.5
6952;BME280;3515;50.138;8.502;2022-09-24T06:55:43;101390;;;10.7;87.6
6952;BME280;3515;50.138;8.502;2022-09-24T06:58:09;101390;;;10.8;87.1
6952;BME280;3515;50.138;8.502;2022-09-24T07:00:34;101360;;;11.1;86.6
6952;BME280;3515;50.138;8.502;2022-09-24T07:02:59;101370;;;11.2;85.6
6952;BME280;3515;50.138;8.502;2022-09-24T07:05:24;101370;;;11.2;85.6
6952;BME280;3515;50.138;8.502;2022-09-24T07:07:49;101390;;;11.4;85.1
6952;BME280;3515;50.138;8.502;2022-09-24T07:10:15;101370;;;11.6;84.6
6952;BME280;3515;50.138;8.502;2022-09-24T07:12:44;101400;;;11.7;84.1
6952;BME280;3515;50.138;8.502;2022-09-24T07:15:09;101390;;;11.8;84.1
6952;BME280;3515;50.138;8.502;2022-09-24T07:17:35;101370;;;12.1;83.6
6952;BME280;3515;50.138;8.502;2022-09-24T07:20:01;101370;;;12.2;83.1
6952;BME280;3515;50.138;8.502;2022-09-24T07:22:26;101370;;;12.3;82.6
6952;BME280;3515;50.138;8.502;2022-09-24T07:24:52;101370;;;12.4;82.6
6952;BME280;3515;50.138;8.502;2022-09-24T07:27:17;101350;;;12.3;82.6
6952;BME280;3515;50.138;8.502;2022-09-24T07:29:42;101360;;;12.3;82.5
6952;BME280;3515;50.138;8.502;2022-09-24T07:32:08;101390;;;12.4;82.5
6952;BME280;3515;50.138;8.502;2022-09-24T07:34:33;101370;;;12.6;82.0
6952;BME280;3515;50.138;8.502;2022-09-24T07:36:58;101370;;;12.8;82.0
6952;BME280;3515;50.138;8.502;2022-09-24T07:39:24;101390;;;12.8;81.5
6952;BME280;3515;50.138;8.502;2022-09-24T07:41:49;101400;;;12.9;81.5
6952;BME280;3515;50.138;8.502;2022-09-24T07:44:14;101380;;;13.0;81.6
6952;BME280;3515;50.138;8.502;2022-09-24T07:46:40;101370;;;13.2;80.5
6952;BME280;3515;50.138;8.502;2022-09-24T07:49:05;101400;;;13.1;81.1
6952;BME280;3515;50.138;8.502;2022-09-24T07:51:30;101400;;;13.2;80.6
6952;BME280;3515;50.138;8.502;2022-09-24T07:53:56;101390;;;13.1;81.0
6952;BME280;3515;50.138;8.502;2022-09-24T07:56:22;101400;;;13.1;81.0
6952;BME280;3515;50.138;8.502;2022-09-24T07:58:47;101400;;;13.1;80.5
6952;BME280;3515;50.138;8.502;2022-09-24T08:01:12;101390;;;13.3;80.5
6952;BME280;3515;50.138;8.502;2022-09-24T08:03:37;101400;;;13.3;80.0
6952;BME280;3515;50.138;8.502;2022-09-24T08:06:02;101400;;;13.3;80.0
6952;BME280;3515;50.138;8.502;2022-09-24T08:08:28;101400;;;13.3;81.0
6952;BME280;3515;50.138;8.502;2022-09-24T08:10:53;101390;;;13.3;80.0
6952;BME280;3515;50.138;8.502;2022-09-24T08:13:24;101360;;;13.3;80.0
6952;BME280;3515;50.138;8.502;2022-09-24T08:15:55;101370;;;13.3;80.0
6952;BME280;3515;50.138;8.502;2022-09-24T08:18:14;101380;;;13.3;80.0
6952;BME280;3515;50.138;8.502;2022-09-24T08:20:39;101390;;;13.3;80.5
6952;BME280;3515;50.138;8.502;2022-09-24T08:23:05;101400;;;13.3;80.0
6952;BME280;3515;50.138;8.502;2022-09-24T08:25:30;101390;;;13.4;80.5
6952;BME280;3515;50.138;8.502;2022-09-24T08:27:55;101400;;;13.5;80.0
6952;BME280;3515;50.138;8.502;2022-09-24T08:30:20;101370;;;13.5;80.0
6952;BME280;3515;50.138;8.502;2022-09-24T08:32:45;101390;;;13.6;79.5
6952;BME280;3515;50.138;8.502;2022-09-24T08:35:11;101380;;;13.7;79.0
6952;BME280;3515;50.138;8.502;2022-09-24T08:37:36;101400;;;13.9;78.5
6952;BME280;3515;50.138;8.502;2022-09-24T08:40:01;101400;;;14.2;77.5
6952;BME280;3515;50.138;8.502;2022-09-24T08:42:34;101400;;;14.4;76.5
6952;BME280;3515;50.138;8.502;2022-09-24T08:44:56;101400;;;14.6;77.5
6952;BME280;3515;50.138;8.502;2022-09-24T08:47:30;101390;;;14.6;77.5
6952;BME280;3515;50.138;8.502;2022-09-24T08:49:47;101410;;;14.6;77.5
6952;BME280;3515;50.138;8.502;2022-09-24T08:52:14;101400;;;14.7;77.0
6952;BME280;3515;50.138;8.502;2022-09-24T08:54:37;101420;;;14.9;76.5
6952;BME280;3515;50.138;8.502;2022-09-24T08:57:04;101390;;;15.1;75.0
6952;BME280;3515;50.138;8.502;2022-09-24T08:59:28;101390;;;15.3;74.5
6952;BME280;3515;50.138;8.502;2022-09-24T09:01:56;101380;;;15.3;74.5
6952;BME280;3515;50.138;8.502;2022-09-24T09:04:23;101370;;;15.2;74.5
6952;BME280;3515;50.138;8.502;2022-09-24T09:06:50;101390;;;15.2;75.0
6952;BME280;3515;50.138;8.502;2022-09-24T09:09:10;101360;;;15.4;74.0
6952;BME280;3515;50.138;8.502;2022-09-24T09:11:34;101400;;;15.4;73.5
6952;BME280;3515;50.138;8.502;2022-09-24T09:14:05;101390;;;15.7;73.5
6952;BME280;3515;50.138;8.502;2022-09-24T09:16:30;101390;;;15.6;72.9
6952;BME280;3515;50.138;8.502;2022-09-24T09:18:55;101370;;;15.7;72.9
6952;BME280;3515;50.138;8.502;2022-09-24T09:21:24;101400;;;15.8;71.4
6952;BME280;3515;50.138;8.502;2022-09-24T09:23:46;101400;;;15.6;72.0
6952;BME280;3515;50.138;8.502;2022-09-24T09:26:10;101380;;;15.2;72.0
6952;BME280;3515;50.138;8.502;2022-09-24T09:28:35;101360;;;15.5;72.0
6952;BME280;3515;50.138;8.502;2022-09-24T09:31:02;101390;;;15.5;72.0
6952;BME280;3515;50.138;8.502;2022-09-24T09:33:33;101390;;;15.3;72.0
6952;BME280;3515;50.138;8.502;2022-09-24T09:35:54;101390;;;15.4;71.9
6952;BME280;3515;50.138;8.502;2022-09-24T09:38:19;101410;;;15.5;72.0
6952;BME280;3515;50.138;8.502;2022-09-24T09:40:43;101400;;;15.8;70.9
6952;BME280;3515;50.138;8.502;2022-09-24T09:43:07;101410;;;16.1;68.9
6952;BME280;3515;50.138;8.502;2022-09-24T09:45:34;101400;;;16.4;69.9
6952;BME280;3515;50.138;8.502;2022-09-24T09:47:58;101400;;;16.4;70.5
6952;BME280;3515;50.138;8.502;2022-09-24T09:50:25;101410;;;16.0;71.5
6952;BME280;3515;50.138;8.502;2022-09-24T09:52:48;101380;;;16.0;71.5
6952;BME280;3515;50.138;8.502;2022-09-24T09:55:22;101410;;;16.0;72.0
6952;BME280;3515;50.138;8.502;2022-09-24T09:57:38;101390;;;16.0;72.5
6952;BME280;3515;50.138;8.502;2022-09-24T10:00:04;101410;;;16.1;72.0
6952;BME280;3515;50.138;8.502;2022-09-24T10:02:29;101400;;;16.5;70.5
6952;BME280;3515;50.138;8.502;2022-09-24T10:05:01;101390;;;16.5;71.0
6952;BME280;3515;50.138;8.502;2022-09-24T10:07:19;101380;;;16.4;70.5
6952;BME280;3515;50.138;8.502;2022-09-24T10:09:45;101370;;;16.4;70.5
6952;BME280;3515;50.138;8.502;2022-09-24T10:12:14;101390;;;16.5;70.5
6952;BME280;3515;50.138;8.502;2022-09-24T10:14:35;101390;;;16.5;70.5
6952;BME280;3515;50.138;8.502;2022-09-24T10:17:00;101390;;;16.5;71.0
6952;BME280;3515;50.138;8.502;2022-09-24T10:19:26;101370;;;16.6;70.5
6952;BME280;3515;50.138;8.502;2022-09-24T10:21:51;101380;;;16.3;71.0
6952;BME280;3515;50.138;8.502;2022-09-24T10:24:18;101370;;;16.3;71.0
6952;BME280;3515;50.138;8.502;2022-09-24T10:26:42;101380;;;16.1;71.5
6952;BME280;3515;50.138;8.502;2022-09-24T10:29:08;101380;;;16.1;71.0
6952;BME280;3515;50.138;8.502;2022-09-24T10:31:34;101360;;;16.1;70.5
6952;BME280;3515;50.138;8.502;2022-09-24T10:33:57;101390;;;16.1;70.0
6952;BME280;3515;50.138;8.502;2022-09-24T10:36:23;101390;;;16.1;70.0
6952;BME280;3515;50.138;8.502;2022-09-24T10:38:48;101370;;;16.1;69.5
6952;BME280;3515;50.138;8.502;2022-09-24T10:41:15;101380;;;16.1;70.0
6952;BME280;3515;50.138;8.502;2022-09-24T10:43:38;101380;;;16.3;68.5
6952;BME280;3515;50.138;8.502;2022-09-24T10:46:08;101370;;;16.5;68.5
6952;BME280;3515;50.138;8.502;2022-09-24T10:48:33;101370;;;16.5;68.0
6952;BME280;3515;50.138;8.502;2022-09-24T10:50:57;101360;;;16.7;67.5
6952;BME280;3515;50.138;8.502;2022-09-24T10:53:24;101370;;;16.9;68.0
6952;BME280;3515;50.138;8.502;2022-09-24T10:55:49;101350;;;16.8;67.5
6952;BME280;3515;50.138;8.502;2022-09-24T10:58:18;101370;;;16.8;69.0
6952;BME280;3515;50.138;8.502;2022-09-24T11:00:37;101350;;;16.9;68.5
6952;BME280;3515;50.138;8.502;2022-09-24T11:03:05;101350;;;17.1;67.0
6952;BME280;3515;50.138;8.502;2022-09-24T11:05:27;101380;;;17.3;67.0
6952;BME280;3515;50.138;8.502;2022-09-24T11:07:56;101360;;;17.3;67.5
6952;BME280;3515;50.138;8.502;2022-09-24T11:10:22;101380;;;17.1;68.0
6952;BME280;3515;50.138;8.502;2022-09-24T11:12:44;101340;;;17.4;65.5
6952;BME280;3515;50.138;8.502;2022-09-24T11:15:14;101350;;;17.4;66.5
6952;BME280;3515;50.138;8.502;2022-09-24T11:17:46;101350;;;17.5;65.5
6952;BME280;3515;50.138;8.502;2022-09-24T11:20:13;101340;;;17.5;65.5
6952;BME280;3515;50.138;8.502;2022-09-24T11:22:30;101340;;;17.6;65.0
6952;BME280;3515;50.138;8.502;2022-09-24T11:25:03;101340;;;17.4;64.5
6952;BME280;3515;50.138;8.502;2022-09-24T11:27:30;101370;;;17.6;64.0
6952;BME280;3515;50.138;8.502;2022-09-24T11:29:50;101340;;;17.8;62.5
6952;BME280;3515;50.138;8.502;2022-09-24T11:32:11;101350;;;17.9;62.5
6952;BME280;3515;50.138;8.502;2022-09-24T11:34:41;101350;;;18.1;61.4
6952;BME280;3515;50.138;8.502;2022-09-24T11:37:06;101330;;;18.4;60.9
6952;BME280;3515;50.138;8.502;2022-09-24T11:39:32;101380;;;18.4;61.0
6952;BME280;3515;50.138;8.502;2022-09-24T11:41:53;101340;;;18.4;61.5
6952;BME280;3515;50.138;8.502;2022-09-24T11:44:23;101340;;;18.4;61.5
6952;BME280;3515;50.138;8.502;2022-09-24T11:46:46;101360;;;18.3;61.5
6952;BME280;3515;50.138;8.502;2022-09-24T11:49:12;101310;;;18.2;62.5
6952;BME280;3515;50.138;8.502;2022-09-24T11:51:35;101340;;;18.0;62.0
6952;BME280;3515;50.138;8.502;2022-09-24T11:53:57;101320;;;18.0;61.5
6952;BME280;3515;50.138;8.502;2022-09-24T11:56:22;101320;;;18.0;60.5
6952;BME280;3515;50.138;8.502;2022-09-24T11:58:47;101330;;;17.9;61.0
6952;BME280;3515;50.138;8.502;2022-09-24T12:01:13;101340;;;18.0;60.0
6952;BME280;3515;50.138;8.502;2022-09-24T12:03:38;101330;;;17.9;60.5
6952;BME280;3515;50.138;8.502;2022-09-24T12:06:04;101320;;;17.9;61.5
6952;BME280;3515;50.138;8.502;2022-09-24T12:08:28;101350;;;17.9;60.5
6952;BME280;3515;50.138;8.502;2022-09-24T12:10:54;101330;;;18.0;60.5
6952;BME280;3515;50.138;8.502;2022-09-24T12:13:19;101300;;;18.0;60.5
6952;BME280;3515;50.138;8.502;2022-09-24T12:15:46;101310;;;18.1;61.5
6952;BME280;3515;50.138;8.502;2022-09-24T12:18:11;101330;;;18.2;61.0
6952;BME280;3515;50.138;8.502;2022-09-24T12:20:38;101290;;;18.4;60.0
6952;BME280;3515;50.138;8.502;2022-09-24T12:23:00;101310;;;18.4;59.5
6952;BME280;3515;50.138;8.502;2022-09-24T12:25:25;101310;;;18.4;60.0
6952;BME280;3515;50.138;8.502;2022-09-24T12:27:49;101320;;;18.4;60.5
6952;BME280;3515;50.138;8.502;2022-09-24T12:30:21;101310;;;18.4;61.5
6952;BME280;3515;50.138;8.502;2022-09-24T12:32:41;101290;;;18.5;60.5
6952;BME280;3515;50.138;8.502;2022-09-24T12:35:07;101320;;;18.6;61.0
6952;BME280;3515;50.138;8.502;2022-09-24T12:37:32;101300;;;18.6;60.5
6952;BME280;3515;50.138;8.502;2022-09-24T12:39:58;101290;;;18.6;60.5
6952;BME280;3515;50.138;8.502;2022-09-24T12:42:22;101310;;;18.6;60.5
6952;BME280;3515;50.138;8.502;2022-09-24T12:44:48;101300;;;18.8;59.5
6952;BME280;3515;50.138;8.502;2022-09-24T12:47:15;101330;;;18.6;60.5
6952;BME280;3515;50.138;8.502;2022-09-24T12:49:38;101300;;;18.5;60.0
6952;BME280;3515;50.138;8.502;2022-09-24T12:52:14;101280;;;18.5;60.5
6952;BME280;3515;50.138;8.502;2022-09-24T12:54:29;101290;;;18.5;60.0
6952;BME280;3515;50.138;8.502;2022-09-24T12:59:23;101280;;;18.5;61.0
6952;BME280;3515;50.138;8.502;2022-09-24T13:01:44;101280;;;18.4;61.0
6952;BME280;3515;50.138;8.502;2022-09-24T13:06:35;101290;;;18.5;60.5
6952;BME280;3515;50.138;8.502;2022-09-24T13:09:00;101290;;;18.4;60.5
6952;BME280;3515;50.138;8.502;2022-09-24T13:11:28;101280;;;18.5;60.5
6952;BME280;3515;50.138;8.502;2022-09-24T13:13:57;101260;;;18.6;60.0
6952;BME280;3515;50.138;8.502;2022-09-24T13:16:16;101260;;;18.7;59.5
6952;BME280;3515;50.138;8.502;2022-09-24T13:18:41;101260;;;18.8;59.5
6952;BME280;3515;50.138;8.502;2022-09-24T13:21:07;101270;;;19.0;58.5
6952;BME280;3515;50.138;8.502;2022-09-24T13:25:57;101270;;;19.1;58.0
6952;BME280;3515;50.138;8.502;2022-09-24T13:28:23;101270;;;19.2;58.5
6952;BME280;3515;50.138;8.502;2022-09-24T13:30:49;101260;;;19.0;58.0
6952;BME280;3515;50.138;8.502;2022-09-24T13:33:17;101260;;;18.9;58.5
6952;BME280;3515;50.138;8.502;2022-09-24T13:35:41;101260;;;18.9;59.0
6952;BME280;3515;50.138;8.502;2022-09-24T13:38:05;101260;;;18.8;59.0
6952;BME280;3515;50.138;8.502;2022-09-24T13:40:30;101240;;;18.8;59.5
6952;BME280;3515;50.138;8.502;2022-09-24T13:42:55;101260;;;18.8;58.5
6952;BME280;3515;50.138;8.502;2022-09-24T13:45:19;101260;;;18.8;59.0
6952;BME280;3515;50.138;8.502;2022-09-24T13:47:45;101280;;;18.8;58.5
6952;BME280;3515;50.138;8.502;2022-09-24T13:50:13;101280;;;18.6;59.0
6952;BME280;3515;50.138;8.502;2022-09-24T13:52:35;101290;;;18.8;59.0
6952;BME280;3515;50.138;8.502;2022-09-24T13:55:00;101290;;;18.8;59.5
6952;BME280;3515;50.138;8.502;2022-09-24T13:57:25;101260;;;18.6;59.5
6952;BME280;3515;50.138;8.502;2022-09-24T14:02:21;101290;;;18.6;59.4
6952;BME280;3515;50.138;8.502;2022-09-24T14:04:41;101260;;;18.6;59.0
6952;BME280;3515;50.138;8.502;2022-09-24T14:07:06;101290;;;18.6;59.0
6952;BME280;3515;50.138;8.502;2022-09-24T14:09:32;101270;;;18.6;58.5
6952;BME280;3515;50.138;8.502;2022-09-24T14:11:57;101280;;;18.6;58.0